sensor_id;sensor_type;location;lat;lon;timestamp;temperature;humidity
5172;DHT22;2605;49.770;9.868;2023-05-10T00:01:21;13.70;99.90
5172;DHT22;2605;49.770;9.868;2023-05-10T00:03:46;13.70;99.90
5172;DHT22;2605;49.770;9.868;2023-05-10T00:06:11;13.70;99.90
5172;DHT22;2605;49.770;9.868;2023-05-10T00:08:37;13.70;99.90
5172;DHT22;2605;49.770;9.868;2023-05-10T00:11:03;13.60;99.90
5172;DHT22;2605;49.770;9.868;2023-05-10T00:13:28;13.60;99.90
5172;DHT22;2605;49.770;9.868;2023-05-10T00:15:54;13.60;99.90
5172;DHT22;2605;49.770;9.868;2023-05-10T00:18:19;13.60;99.90
5172;DHT22;2605;49.770;9.868;2023-05-10T00:20:44;13.60;99.90
5172;DHT22;2605;49.770;9.868;2023-05-10T00:23:11;13.60;99.90
5172;DHT22;2605;49.770;9.868;2023-05-10T00:25:37;13.60;99.90
5172;DHT22;2605;49.770;9.868;2023-05-10T00:28:05;13.60;99.90
5172;DHT22;2605;49.770;9.868;2023-05-10T00:30:30;13.50;99.90
5172;DHT22;2605;49.770;9.868;2023-05-10T00:32:56;13.50;99.90
5172;DHT22;2605;49.770;9.868;2023-05-10T00:35:22;13.60;99.90
5172;DHT22;2605;49.770;9.868;2023-05-10T00:37:47;13.50;99.90
5172;DHT22;2605;49.770;9.868;2023-05-10T00:40:13;13.50;99.90
5172;DHT22;2605;49.770;9.868;2023-05-10T00:42:38;13.50;99.90
5172;DHT22;2605;49.770;9.868;2023-05-10T00:45:04;13.50;99.90
5172;DHT22;2605;49.770;9.868;2023-05-10T00:47:31;13.50;99.90
5172;DHT22;2605;49.770;9.868;2023-05-10T00:49:57;13.50;99.90
5172;DHT22;2605;49.770;9.868;2023-05-10T00:52:23;13.50;99.90
5172;DHT22;2605;49.770;9.868;2023-05-10T00:54:51;13.40;99.90
5172;DHT22;2605;49.770;9.868;2023-05-10T00:57:17;13.50;99.90
5172;DHT22;2605;49.770;9.868;2023-05-10T00:59:42;13.40;99.90
5172;DHT22;2605;49.770;9.868;2023-05-10T01:02:08;13.40;99.90
5172;DHT22;2605;49.770;9.868;2023-05-10T01:04:34;13.40;99.90
5172;DHT22;2605;49.770;9.868;2023-05-10T01:07:00;13.40;99.90
5172;DHT22;2605;49.770;9.868;2023-05-10T01:09:26;13.30;99.90
5172;DHT22;2605;49.770;9.868;2023-05-10T01:11:53;13.40;99.90
5172;DHT22;2605;49.770;9.868;2023-05-10T01:14:19;13.30;99.90
5172;DHT22;2605;49.770;9.868;2023-05-10T01:16:46;13.30;99.90
5172;DHT22;2605;49.770;9.868;2023-05-10T01:19:30;13.30;99.90
5172;DHT22;2605;49.770;9.868;2023-05-10T01:22:07;13.30;99.90
5172;DHT22;2605;49.770;9.868;2023-05-10T01:24:50;13.20;99.90
5172;DHT22;2605;49.770;9.868;2023-05-10T01:33:50;13.20;99.90
5172;DHT22;2605;49.770;9.868;2023-05-10T01:36:40;13.20;99.90
5172;DHT22;2605;49.770;9.868;2023-05-10T01:39:55;13.20;99.90
5172;DHT22;2605;49.770;9.868;2023-05-10T01:42:26;13.10;99.90
5172;DHT22;2605;49.770;9.868;2023-05-10T01:47:35;13.10;99.90
5172;DHT22;2605;49.770;9.868;2023-05-10T01:50:04;13.00;99.90
5172;DHT22;2605;49.770;9.868;2023-05-10T01:52:40;13.00;99.90
5172;DHT22;2605;49.770;9.868;2023-05-10T01:55:09;13.00;99.90
5172;DHT22;2605;49.770;9.868;2023-05-10T01:57:37;12.90;99.90
5172;DHT22;2605;49.770;9.868;2023-05-10T02:00:07;12.90;99.90
5172;DHT22;2605;49.770;9.868;2023-05-10T02:02:37;12.80;99.90
5172;DHT22;2605;49.770;9.868;2023-05-10T02:05:05;12.80;99.90
5172;DHT22;2605;49.770;9.868;2023-05-10T02:07:34;12.80;99.90
5172;DHT22;2605;49.770;9.868;2023-05-10T02:10:02;12.70;99.90
5172;DHT22;2605;49.770;9.868;2023-05-10T02:12:29;12.60;99.90
5172;DHT22;2605;49.770;9.868;2023-05-10T02:14:57;12.50;99.90
5172;DHT22;2605;49.770;9.868;2023-05-10T02:17:25;12.40;99.90
5172;DHT22;2605;49.770;9.868;2023-05-10T02:19:51;12.40;99.90
5172;DHT22;2605;49.770;9.868;2023-05-10T02:22:19;12.30;99.90
5172;DHT22;2605;49.770;9.868;2023-05-10T02:24:45;12.30;99.90
5172;DHT22;2605;49.770;9.868;2023-05-10T02:27:12;12.20;99.90
5172;DHT22;2605;49.770;9.868;2023-05-10T02:29:39;12.20;99.90
5172;DHT22;2605;49.770;9.868;2023-05-10T02:32:05;12.20;99.90
5172;DHT22;2605;49.770;9.868;2023-05-10T02:34:35;12.10;99.90
5172;DHT22;2605;49.770;9.868;2023-05-10T02:37:02;12.10;99.90
5172;DHT22;2605;49.770;9.868;2023-05-10T02:39:28;12.10;99.90
5172;DHT22;2605;49.770;9.868;2023-05-10T02:41:55;12.10;99.90
5172;DHT22;2605;49.770;9.868;2023-05-10T02:44:22;12.00;99.90
5172;DHT22;2605;49.770;9.868;2023-05-10T02:46:48;12.00;99.90
5172;DHT22;2605;49.770;9.868;2023-05-10T02:49:15;11.90;99.90
5172;DHT22;2605;49.770;9.868;2023-05-10T02:51:56;11.90;99.90
5172;DHT22;2605;49.770;9.868;2023-05-10T02:54:29;12.00;99.90
5172;DHT22;2605;49.770;9.868;2023-05-10T02:56:57;11.90;99.90
5172;DHT22;2605;49.770;9.868;2023-05-10T02:59:23;11.90;99.90
5172;DHT22;2605;49.770;9.868;2023-05-10T03:01:48;11.90;99.90
5172;DHT22;2605;49.770;9.868;2023-05-10T03:04:14;11.90;99.90
5172;DHT22;2605;49.770;9.868;2023-05-10T03:06:40;11.80;99.90
5172;DHT22;2605;49.770;9.868;2023-05-10T03:09:06;11.80;99.90
5172;DHT22;2605;49.770;9.868;2023-05-10T03:17:30;11.80;99.90
5172;DHT22;2605;49.770;9.868;2023-05-10T03:20:06;11.80;99.90
5172;DHT22;2605;49.770;9.868;2023-05-10T03:22:37;11.80;99.90
5172;DHT22;2605;49.770;9.868;2023-05-10T03:25:08;11.80;99.90
5172;DHT22;2605;49.770;9.868;2023-05-10T03:27:36;11.70;99.90
5172;DHT22;2605;49.770;9.868;2023-05-10T03:30:05;11.70;99.90
5172;DHT22;2605;49.770;9.868;2023-05-10T03:32:32;11.70;99.90
5172;DHT22;2605;49.770;9.868;2023-05-10T03:34:59;11.70;99.90
5172;DHT22;2605;49.770;9.868;2023-05-10T03:37:25;11.70;99.90
5172;DHT22;2605;49.770;9.868;2023-05-10T03:39:50;11.70;99.90
5172;DHT22;2605;49.770;9.868;2023-05-10T03:42:16;11.80;99.90
5172;DHT22;2605;49.770;9.868;2023-05-10T03:44:43;11.80;99.90
5172;DHT22;2605;49.770;9.868;2023-05-10T03:47:08;11.80;99.90
5172;DHT22;2605;49.770;9.868;2023-05-10T03:49:34;11.80;99.90
5172;DHT22;2605;49.770;9.868;2023-05-10T03:51:59;11.80;99.90
5172;DHT22;2605;49.770;9.868;2023-05-10T03:54:25;11.80;99.90
5172;DHT22;2605;49.770;9.868;2023-05-10T03:56:51;11.80;99.90
5172;DHT22;2605;49.770;9.868;2023-05-10T03:59:16;11.80;99.90
5172;DHT22;2605;49.770;9.868;2023-05-10T04:01:42;11.80;99.90
5172;DHT22;2605;49.770;9.868;2023-05-10T04:04:07;11.80;99.90
5172;DHT22;2605;49.770;9.868;2023-05-10T04:06:33;11.80;99.90
5172;DHT22;2605;49.770;9.868;2023-05-10T04:08:58;11.80;99.90
5172;DHT22;2605;49.770;9.868;2023-05-10T04:11:25;11.80;99.90
5172;DHT22;2605;49.770;9.868;2023-05-10T04:13:51;11.90;99.90
5172;DHT22;2605;49.770;9.868;2023-05-10T04:16:16;11.90;99.90
5172;DHT22;2605;49.770;9.868;2023-05-10T04:18:42;11.90;99.90
5172;DHT22;2605;49.770;9.868;2023-05-10T04:21:11;11.90;99.90
5172;DHT22;2605;49.770;9.868;2023-05-10T04:23:37;12.00;99.90
5172;DHT22;2605;49.770;9.868;2023-05-10T04:26:03;12.00;99.90
5172;DHT22;2605;49.770;9.868;2023-05-10T04:28:28;11.90;99.90
5172;DHT22;2605;49.770;9.868;2023-05-10T04:31:03;11.90;99.90
5172;DHT22;2605;49.770;9.868;2023-05-10T04:33:29;11.90;99.90
5172;DHT22;2605;49.770;9.868;2023-05-10T04:35:58;11.90;99.90
5172;DHT22;2605;49.770;9.868;2023-05-10T04:38:27;12.00;99.90
5172;DHT22;2605;49.770;9.868;2023-05-10T04:40:53;12.10;99.90
5172;DHT22;2605;49.770;9.868;2023-05-10T04:43:19;12.10;99.90
5172;DHT22;2605;49.770;9.868;2023-05-10T04:45:44;12.10;99.90
5172;DHT22;2605;49.770;9.868;2023-05-10T04:48:10;12.20;99.90
5172;DHT22;2605;49.770;9.868;2023-05-10T04:50:36;12.20;99.90
5172;DHT22;2605;49.770;9.868;2023-05-10T04:53:02;12.20;99.90
5172;DHT22;2605;49.770;9.868;2023-05-10T04:55:27;12.20;99.90
5172;DHT22;2605;49.770;9.868;2023-05-10T04:57:53;12.20;99.90
5172;DHT22;2605;49.770;9.868;2023-05-10T05:00:20;12.20;99.90
5172;DHT22;2605;49.770;9.868;2023-05-10T05:02:46;12.20;99.90
5172;DHT22;2605;49.770;9.868;2023-05-10T05:05:12;12.30;99.90
5172;DHT22;2605;49.770;9.868;2023-05-10T05:07:38;12.40;99.90
5172;DHT22;2605;49.770;9.868;2023-05-10T05:10:07;12.40;99.90
5172;DHT22;2605;49.770;9.868;2023-05-10T05:12:34;12.50;99.90
5172;DHT22;2605;49.770;9.868;2023-05-10T05:14:59;12.60;99.90
5172;DHT22;2605;49.770;9.868;2023-05-10T05:17:30;12.60;99.90
5172;DHT22;2605;49.770;9.868;2023-05-10T05:19:55;12.70;99.90
5172;DHT22;2605;49.770;9.868;2023-05-10T05:22:21;12.80;99.90
5172;DHT22;2605;49.770;9.868;2023-05-10T05:24:53;12.90;99.90
5172;DHT22;2605;49.770;9.868;2023-05-10T05:27:18;12.90;99.90
5172;DHT22;2605;49.770;9.868;2023-05-10T05:29:46;12.80;99.90
5172;DHT22;2605;49.770;9.868;2023-05-10T05:32:11;12.90;99.90
5172;DHT22;2605;49.770;9.868;2023-05-10T05:34:37;12.90;99.90
5172;DHT22;2605;49.770;9.868;2023-05-10T05:37:02;12.90;99.90
5172;DHT22;2605;49.770;9.868;2023-05-10T05:39:28;12.90;99.90
5172;DHT22;2605;49.770;9.868;2023-05-10T05:41:53;12.90;99.90
5172;DHT22;2605;49.770;9.868;2023-05-10T05:44:18;13.00;99.90
5172;DHT22;2605;49.770;9.868;2023-05-10T05:46:47;12.90;99.90
5172;DHT22;2605;49.770;9.868;2023-05-10T05:49:12;12.90;99.90
5172;DHT22;2605;49.770;9.868;2023-05-10T05:51:38;12.90;99.90
5172;DHT22;2605;49.770;9.868;2023-05-10T05:54:03;13.00;99.90
5172;DHT22;2605;49.770;9.868;2023-05-10T05:56:29;13.10;99.90
5172;DHT22;2605;49.770;9.868;2023-05-10T05:58:55;13.20;99.90
5172;DHT22;2605;49.770;9.868;2023-05-10T06:01:20;13.20;99.90
5172;DHT22;2605;49.770;9.868;2023-05-10T06:03:46;13.40;99.90
5172;DHT22;2605;49.770;9.868;2023-05-10T06:06:11;13.40;99.90
5172;DHT22;2605;49.770;9.868;2023-05-10T06:08:37;13.50;99.90
5172;DHT22;2605;49.770;9.868;2023-05-10T06:11:03;13.50;99.90
5172;DHT22;2605;49.770;9.868;2023-05-10T06:13:29;13.70;99.90
5172;DHT22;2605;49.770;9.868;2023-05-10T06:15:58;14.00;99.90
5172;DHT22;2605;49.770;9.868;2023-05-10T06:18:24;14.20;99.90
5172;DHT22;2605;49.770;9.868;2023-05-10T06:20:50;14.10;99.90
5172;DHT22;2605;49.770;9.868;2023-05-10T06:23:15;14.30;99.90
5172;DHT22;2605;49.770;9.868;2023-05-10T06:25:41;14.40;99.90
5172;DHT22;2605;49.770;9.868;2023-05-10T06:28:06;14.40;99.90
5172;DHT22;2605;49.770;9.868;2023-05-10T06:30:32;14.40;99.90
5172;DHT22;2605;49.770;9.868;2023-05-10T06:32:58;14.40;99.90
5172;DHT22;2605;49.770;9.868;2023-05-10T06:35:23;14.50;99.90
5172;DHT22;2605;49.770;9.868;2023-05-10T06:37:49;14.50;99.90
5172;DHT22;2605;49.770;9.868;2023-05-10T06:40:15;14.40;99.90
5172;DHT22;2605;49.770;9.868;2023-05-10T06:42:41;14.20;99.90
5172;DHT22;2605;49.770;9.868;2023-05-10T06:45:07;13.90;99.90
5172;DHT22;2605;49.770;9.868;2023-05-10T06:47:33;14.00;99.90
5172;DHT22;2605;49.770;9.868;2023-05-10T06:49:59;14.00;99.90
5172;DHT22;2605;49.770;9.868;2023-05-10T06:52:24;14.00;99.90
5172;DHT22;2605;49.770;9.868;2023-05-10T06:54:50;14.00;99.90
5172;DHT22;2605;49.770;9.868;2023-05-10T06:57:15;14.10;99.90
5172;DHT22;2605;49.770;9.868;2023-05-10T06:59:41;14.20;99.90
5172;DHT22;2605;49.770;9.868;2023-05-10T07:02:07;14.20;99.90
5172;DHT22;2605;49.770;9.868;2023-05-10T07:04:32;14.30;99.90
5172;DHT22;2605;49.770;9.868;2023-05-10T07:06:58;14.20;99.90
5172;DHT22;2605;49.770;9.868;2023-05-10T07:09:23;14.20;99.90
5172;DHT22;2605;49.770;9.868;2023-05-10T07:11:49;14.10;99.90
5172;DHT22;2605;49.770;9.868;2023-05-10T07:14:15;14.10;99.90
5172;DHT22;2605;49.770;9.868;2023-05-10T07:16:40;13.90;99.90
5172;DHT22;2605;49.770;9.868;2023-05-10T07:19:06;13.80;99.90
5172;DHT22;2605;49.770;9.868;2023-05-10T07:21:32;13.80;99.90
5172;DHT22;2605;49.770;9.868;2023-05-10T07:23:57;13.80;99.90
5172;DHT22;2605;49.770;9.868;2023-05-10T07:26:26;13.60;99.90
5172;DHT22;2605;49.770;9.868;2023-05-10T07:28:51;13.50;99.90
5172;DHT22;2605;49.770;9.868;2023-05-10T07:31:17;13.50;99.90
5172;DHT22;2605;49.770;9.868;2023-05-10T07:33:42;13.70;99.90
5172;DHT22;2605;49.770;9.868;2023-05-10T07:36:08;14.00;99.90
5172;DHT22;2605;49.770;9.868;2023-05-10T07:38:33;14.10;99.90
5172;DHT22;2605;49.770;9.868;2023-05-10T07:40:59;14.40;99.90
5172;DHT22;2605;49.770;9.868;2023-05-10T07:43:24;14.60;99.90
5172;DHT22;2605;49.770;9.868;2023-05-10T07:45:50;14.30;99.90
5172;DHT22;2605;49.770;9.868;2023-05-10T07:48:15;14.10;99.90
5172;DHT22;2605;49.770;9.868;2023-05-10T07:50:41;14.10;99.90
5172;DHT22;2605;49.770;9.868;2023-05-10T07:53:06;14.10;99.90
5172;DHT22;2605;49.770;9.868;2023-05-10T07:55:33;14.20;99.90
5172;DHT22;2605;49.770;9.868;2023-05-10T07:57:58;14.20;99.90
5172;DHT22;2605;49.770;9.868;2023-05-10T08:00:26;14.10;99.90
5172;DHT22;2605;49.770;9.868;2023-05-10T08:02:52;14.00;99.90
5172;DHT22;2605;49.770;9.868;2023-05-10T08:05:18;14.20;99.90
5172;DHT22;2605;49.770;9.868;2023-05-10T08:07:43;14.50;99.90
5172;DHT22;2605;49.770;9.868;2023-05-10T08:10:12;15.00;99.90
5172;DHT22;2605;49.770;9.868;2023-05-10T08:12:38;15.30;99.90
5172;DHT22;2605;49.770;9.868;2023-05-10T08:15:04;15.30;99.90
5172;DHT22;2605;49.770;9.868;2023-05-10T08:17:30;15.70;99.90
5172;DHT22;2605;49.770;9.868;2023-05-10T08:19:58;16.00;99.90
5172;DHT22;2605;49.770;9.868;2023-05-10T08:22:23;15.60;99.90
5172;DHT22;2605;49.770;9.868;2023-05-10T08:24:49;15.50;99.90
5172;DHT22;2605;49.770;9.868;2023-05-10T08:27:14;15.30;99.90
5172;DHT22;2605;49.770;9.868;2023-05-10T08:29:40;15.40;99.90
5172;DHT22;2605;49.770;9.868;2023-05-10T08:32:06;15.40;99.90
5172;DHT22;2605;49.770;9.868;2023-05-10T08:34:31;15.20;99.90
5172;DHT22;2605;49.770;9.868;2023-05-10T08:36:57;15.10;99.90
5172;DHT22;2605;49.770;9.868;2023-05-10T08:39:22;15.00;99.90
5172;DHT22;2605;49.770;9.868;2023-05-10T08:41:50;14.80;99.90
5172;DHT22;2605;49.770;9.868;2023-05-10T08:44:16;14.80;99.90
5172;DHT22;2605;49.770;9.868;2023-05-10T08:46:45;15.00;99.90
5172;DHT22;2605;49.770;9.868;2023-05-10T08:49:13;15.00;99.90
5172;DHT22;2605;49.770;9.868;2023-05-10T08:51:44;15.10;99.90
5172;DHT22;2605;49.770;9.868;2023-05-10T08:54:12;14.80;99.90
5172;DHT22;2605;49.770;9.868;2023-05-10T08:56:38;14.70;99.90
5172;DHT22;2605;49.770;9.868;2023-05-10T08:59:03;14.70;99.90
5172;DHT22;2605;49.770;9.868;2023-05-10T09:01:31;14.70;99.90
5172;DHT22;2605;49.770;9.868;2023-05-10T09:03:58;14.70;99.90
5172;DHT22;2605;49.770;9.868;2023-05-10T09:06:24;14.80;99.90
5172;DHT22;2605;49.770;9.868;2023-05-10T09:08:49;14.90;99.90
5172;DHT22;2605;49.770;9.868;2023-05-10T09:11:16;14.80;99.90
5172;DHT22;2605;49.770;9.868;2023-05-10T09:13:42;14.80;99.90
5172;DHT22;2605;49.770;9.868;2023-05-10T09:16:09;14.90;99.90
5172;DHT22;2605;49.770;9.868;2023-05-10T09:18:34;14.80;99.90
5172;DHT22;2605;49.770;9.868;2023-05-10T09:21:00;14.70;99.90
5172;DHT22;2605;49.770;9.868;2023-05-10T09:23:25;14.60;99.90
5172;DHT22;2605;49.770;9.868;2023-05-10T09:26:07;14.60;99.90
5172;DHT22;2605;49.770;9.868;2023-05-10T09:31:17;14.80;99.90
5172;DHT22;2605;49.770;9.868;2023-05-10T09:33:44;14.90;99.90
5172;DHT22;2605;49.770;9.868;2023-05-10T09:36:11;15.20;99.90
5172;DHT22;2605;49.770;9.868;2023-05-10T09:38:50;15.50;99.90
5172;DHT22;2605;49.770;9.868;2023-05-10T09:41:21;15.70;99.90
5172;DHT22;2605;49.770;9.868;2023-05-10T09:43:48;16.00;99.90
5172;DHT22;2605;49.770;9.868;2023-05-10T09:46:15;16.10;99.90
5172;DHT22;2605;49.770;9.868;2023-05-10T09:48:45;16.70;99.90
5172;DHT22;2605;49.770;9.868;2023-05-10T09:51:24;16.80;99.90
5172;DHT22;2605;49.770;9.868;2023-05-10T09:54:12;17.20;99.90
5172;DHT22;2605;49.770;9.868;2023-05-10T09:56:38;17.20;99.90
5172;DHT22;2605;49.770;9.868;2023-05-10T09:59:07;16.80;99.90
5172;DHT22;2605;49.770;9.868;2023-05-10T10:01:33;16.70;99.90
5172;DHT22;2605;49.770;9.868;2023-05-10T10:04:02;16.50;99.90
5172;DHT22;2605;49.770;9.868;2023-05-10T10:06:29;16.40;99.90
5172;DHT22;2605;49.770;9.868;2023-05-10T10:08:56;16.30;99.90
5172;DHT22;2605;49.770;9.868;2023-05-10T10:11:23;16.40;99.90
5172;DHT22;2605;49.770;9.868;2023-05-10T10:13:49;16.40;99.90
5172;DHT22;2605;49.770;9.868;2023-05-10T10:16:15;16.20;99.90
5172;DHT22;2605;49.770;9.868;2023-05-10T10:18:42;16.30;99.90
5172;DHT22;2605;49.770;9.868;2023-05-10T10:21:07;16.40;99.90
5172;DHT22;2605;49.770;9.868;2023-05-10T10:23:36;16.50;99.90
5172;DHT22;2605;49.770;9.868;2023-05-10T10:26:03;16.60;99.90
5172;DHT22;2605;49.770;9.868;2023-05-10T10:30:55;16.80;99.90
5172;DHT22;2605;49.770;9.868;2023-05-10T10:33:35;16.70;99.90
5172;DHT22;2605;49.770;9.868;2023-05-10T10:36:03;17.10;99.90
5172;DHT22;2605;49.770;9.868;2023-05-10T10:39:10;17.60;99.90
5172;DHT22;2605;49.770;9.868;2023-05-10T10:41:39;17.70;99.90
5172;DHT22;2605;49.770;9.868;2023-05-10T10:52:28;17.90;99.90
5172;DHT22;2605;49.770;9.868;2023-05-10T10:57:50;17.60;99.90
5172;DHT22;2605;49.770;9.868;2023-05-10T11:00:38;17.30;99.90
5172;DHT22;2605;49.770;9.868;2023-05-10T11:03:09;16.80;99.90
5172;DHT22;2605;49.770;9.868;2023-05-10T11:05:47;17.00;99.90
5172;DHT22;2605;49.770;9.868;2023-05-10T11:08:32;17.20;99.90
5172;DHT22;2605;49.770;9.868;2023-05-10T11:13:42;17.40;99.90
5172;DHT22;2605;49.770;9.868;2023-05-10T11:16:24;17.40;99.90
5172;DHT22;2605;49.770;9.868;2023-05-10T11:18:56;17.30;99.90
5172;DHT22;2605;49.770;9.868;2023-05-10T11:21:22;17.20;99.90
5172;DHT22;2605;49.770;9.868;2023-05-10T11:23:55;17.20;99.90
5172;DHT22;2605;49.770;9.868;2023-05-10T11:26:22;17.60;99.90
5172;DHT22;2605;49.770;9.868;2023-05-10T11:28:51;18.00;99.90
5172;DHT22;2605;49.770;9.868;2023-05-10T11:31:17;18.30;99.90
5172;DHT22;2605;49.770;9.868;2023-05-10T11:33:48;18.50;99.90
5172;DHT22;2605;49.770;9.868;2023-05-10T11:36:21;18.50;99.90
5172;DHT22;2605;49.770;9.868;2023-05-10T11:38:48;18.90;99.90
5172;DHT22;2605;49.770;9.868;2023-05-10T11:41:16;19.30;99.90
5172;DHT22;2605;49.770;9.868;2023-05-10T11:43:42;19.10;99.90
5172;DHT22;2605;49.770;9.868;2023-05-10T11:46:11;19.50;99.90
5172;DHT22;2605;49.770;9.868;2023-05-10T11:48:40;19.80;99.90
5172;DHT22;2605;49.770;9.868;2023-05-10T11:51:07;19.30;99.90
5172;DHT22;2605;49.770;9.868;2023-05-10T11:53:33;18.60;99.90
5172;DHT22;2605;49.770;9.868;2023-05-10T11:56:06;18.70;99.90
5172;DHT22;2605;49.770;9.868;2023-05-10T11:58:33;18.70;99.90
5172;DHT22;2605;49.770;9.868;2023-05-10T12:00:59;18.70;99.90
5172;DHT22;2605;49.770;9.868;2023-05-10T12:03:26;19.30;99.90
5172;DHT22;2605;49.770;9.868;2023-05-10T12:05:51;19.40;99.90
5172;DHT22;2605;49.770;9.868;2023-05-10T12:08:24;19.50;99.90
5172;DHT22;2605;49.770;9.868;2023-05-10T12:11:03;19.00;99.90
5172;DHT22;2605;49.770;9.868;2023-05-10T12:13:28;18.70;99.90
5172;DHT22;2605;49.770;9.868;2023-05-10T12:15:57;18.80;99.90
5172;DHT22;2605;49.770;9.868;2023-05-10T12:18:24;19.10;99.90
5172;DHT22;2605;49.770;9.868;2023-05-10T12:20:52;19.10;99.90
5172;DHT22;2605;49.770;9.868;2023-05-10T12:23:18;18.70;99.90
5172;DHT22;2605;49.770;9.868;2023-05-10T12:25:44;18.20;99.90
5172;DHT22;2605;49.770;9.868;2023-05-10T12:28:10;18.20;99.90
5172;DHT22;2605;49.770;9.868;2023-05-10T12:30:37;17.70;99.90
5172;DHT22;2605;49.770;9.868;2023-05-10T12:33:11;17.50;99.90
5172;DHT22;2605;49.770;9.868;2023-05-10T12:35:51;17.00;99.90
5172;DHT22;2605;49.770;9.868;2023-05-10T12:38:26;16.30;99.90
5172;DHT22;2605;49.770;9.868;2023-05-10T12:40:55;15.40;99.90
5172;DHT22;2605;49.770;9.868;2023-05-10T12:43:20;14.70;99.90
5172;DHT22;2605;49.770;9.868;2023-05-10T12:45:46;14.20;99.90
5172;DHT22;2605;49.770;9.868;2023-05-10T12:48:17;13.60;99.90
5172;DHT22;2605;49.770;9.868;2023-05-10T12:50:42;13.10;99.90
5172;DHT22;2605;49.770;9.868;2023-05-10T12:53:08;12.70;99.90
5172;DHT22;2605;49.770;9.868;2023-05-10T12:55:33;12.40;99.90
5172;DHT22;2605;49.770;9.868;2023-05-10T12:57:59;12.00;99.90
5172;DHT22;2605;49.770;9.868;2023-05-10T13:00:25;11.90;99.90
5172;DHT22;2605;49.770;9.868;2023-05-10T13:02:51;12.00;99.90
5172;DHT22;2605;49.770;9.868;2023-05-10T13:05:16;12.00;99.90
5172;DHT22;2605;49.770;9.868;2023-05-10T13:07:41;11.90;99.90
5172;DHT22;2605;49.770;9.868;2023-05-10T13:10:09;12.00;99.90
5172;DHT22;2605;49.770;9.868;2023-05-10T13:12:35;12.00;99.90
5172;DHT22;2605;49.770;9.868;2023-05-10T13:15:01;12.00;99.90
5172;DHT22;2605;49.770;9.868;2023-05-10T13:17:27;11.90;99.90
5172;DHT22;2605;49.770;9.868;2023-05-10T13:19:53;11.80;99.90
5172;DHT22;2605;49.770;9.868;2023-05-10T13:22:18;12.00;99.90
5172;DHT22;2605;49.770;9.868;2023-05-10T13:24:44;12.10;99.90
5172;DHT22;2605;49.770;9.868;2023-05-10T13:27:09;12.00;99.90
5172;DHT22;2605;49.770;9.868;2023-05-10T13:29:35;12.20;99.90
5172;DHT22;2605;49.770;9.868;2023-05-10T13:32:00;12.20;99.90
5172;DHT22;2605;49.770;9.868;2023-05-10T13:34:26;12.20;99.90
5172;DHT22;2605;49.770;9.868;2023-05-10T13:36:52;12.30;99.90
5172;DHT22;2605;49.770;9.868;2023-05-10T13:39:19;12.40;99.90
5172;DHT22;2605;49.770;9.868;2023-05-10T13:41:46;12.50;99.90
5172;DHT22;2605;49.770;9.868;2023-05-10T13:44:12;12.60;99.90
5172;DHT22;2605;49.770;9.868;2023-05-10T13:46:39;12.60;99.90
5172;DHT22;2605;49.770;9.868;2023-05-10T13:49:04;12.80;99.90
5172;DHT22;2605;49.770;9.868;2023-05-10T13:51:30;12.80;99.90
5172;DHT22;2605;49.770;9.868;2023-05-10T13:53:57;12.80;99.90
5172;DHT22;2605;49.770;9.868;2023-05-10T13:56:23;12.70;99.90
5172;DHT22;2605;49.770;9.868;2023-05-10T13:58:48;12.80;99.90
5172;DHT22;2605;49.770;9.868;2023-05-10T14:01:14;12.80;99.90
5172;DHT22;2605;49.770;9.868;2023-05-10T14:03:39;12.80;99.90
5172;DHT22;2605;49.770;9.868;2023-05-10T14:06:05;12.90;99.90
5172;DHT22;2605;49.770;9.868;2023-05-10T14:08:32;13.10;99.90
5172;DHT22;2605;49.770;9.868;2023-05-10T14:10:58;13.20;99.90
5172;DHT22;2605;49.770;9.868;2023-05-10T14:13:24;13.30;99.90
5172;DHT22;2605;49.770;9.868;2023-05-10T14:15:50;13.30;99.90
5172;DHT22;2605;49.770;9.868;2023-05-10T14:18:15;13.30;99.90
5172;DHT22;2605;49.770;9.868;2023-05-10T14:20:41;13.50;99.90
5172;DHT22;2605;49.770;9.868;2023-05-10T14:23:06;13.60;99.90
5172;DHT22;2605;49.770;9.868;2023-05-10T14:25:32;13.70;99.90
5172;DHT22;2605;49.770;9.868;2023-05-10T14:27:58;13.80;99.90
5172;DHT22;2605;49.770;9.868;2023-05-10T14:30:23;14.00;99.90
5172;DHT22;2605;49.770;9.868;2023-05-10T14:32:49;14.00;99.90
5172;DHT22;2605;49.770;9.868;2023-05-10T14:35:15;13.90;99.90
5172;DHT22;2605;49.770;9.868;2023-05-10T14:37:40;14.00;99.90
5172;DHT22;2605;49.770;9.868;2023-05-10T14:40:06;13.90;99.90
5172;DHT22;2605;49.770;9.868;2023-05-10T14:42:32;13.90;99.90
5172;DHT22;2605;49.770;9.868;2023-05-10T14:44:57;14.00;99.90
5172;DHT22;2605;49.770;9.868;2023-05-10T14:47:26;14.10;99.90
5172;DHT22;2605;49.770;9.868;2023-05-10T14:49:54;14.30;99.90
5172;DHT22;2605;49.770;9.868;2023-05-10T14:52:20;14.40;99.90
5172;DHT22;2605;49.770;9.868;2023-05-10T14:54:45;14.50;99.90
5172;DHT22;2605;49.770;9.868;2023-05-10T14:57:11;14.40;99.90
5172;DHT22;2605;49.770;9.868;2023-05-10T14:59:36;14.50;99.90
5172;DHT22;2605;49.770;9.868;2023-05-10T15:02:02;14.50;99.90
5172;DHT22;2605;49.770;9.868;2023-05-10T15:04:28;14.60;99.90
5172;DHT22;2605;49.770;9.868;2023-05-10T15:06:54;14.70;99.90
5172;DHT22;2605;49.770;9.868;2023-05-10T15:09:24;14.70;99.90
5172;DHT22;2605;49.770;9.868;2023-05-10T15:11:50;14.60;99.90
5172;DHT22;2605;49.770;9.868;2023-05-10T15:14:15;14.60;99.90
5172;DHT22;2605;49.770;9.868;2023-05-10T15:16:41;14.60;99.90
5172;DHT22;2605;49.770;9.868;2023-05-10T15:19:06;14.80;99.90
5172;DHT22;2605;49.770;9.868;2023-05-10T15:21:32;14.90;99.90
5172;DHT22;2605;49.770;9.868;2023-05-10T15:24:04;14.90;99.90
5172;DHT22;2605;49.770;9.868;2023-05-10T15:26:30;15.00;99.90
5172;DHT22;2605;49.770;9.868;2023-05-10T15:28:56;15.20;99.90
5172;DHT22;2605;49.770;9.868;2023-05-10T15:31:21;15.10;99.90
5172;DHT22;2605;49.770;9.868;2023-05-10T15:33:47;15.20;99.90
5172;DHT22;2605;49.770;9.868;2023-05-10T15:36:12;15.30;99.90
5172;DHT22;2605;49.770;9.868;2023-05-10T15:38:38;15.40;99.90
5172;DHT22;2605;49.770;9.868;2023-05-10T15:41:03;15.70;99.90
5172;DHT22;2605;49.770;9.868;2023-05-10T15:43:29;15.90;99.90
5172;DHT22;2605;49.770;9.868;2023-05-10T15:45:54;16.30;99.90
5172;DHT22;2605;49.770;9.868;2023-05-10T15:48:20;16.70;99.90
5172;DHT22;2605;49.770;9.868;2023-05-10T15:50:48;16.90;99.90
5172;DHT22;2605;49.770;9.868;2023-05-10T15:53:13;17.00;99.90
5172;DHT22;2605;49.770;9.868;2023-05-10T15:55:39;17.20;99.90
5172;DHT22;2605;49.770;9.868;2023-05-10T15:58:05;17.30;99.90
5172;DHT22;2605;49.770;9.868;2023-05-10T16:00:30;17.60;99.90
5172;DHT22;2605;49.770;9.868;2023-05-10T16:02:56;17.80;99.90
5172;DHT22;2605;49.770;9.868;2023-05-10T16:05:21;17.90;99.90
5172;DHT22;2605;49.770;9.868;2023-05-10T16:07:47;17.70;99.90
5172;DHT22;2605;49.770;9.868;2023-05-10T16:10:13;17.80;99.90
5172;DHT22;2605;49.770;9.868;2023-05-10T16:12:39;18.10;99.90
5172;DHT22;2605;49.770;9.868;2023-05-10T16:15:05;18.00;99.90
5172;DHT22;2605;49.770;9.868;2023-05-10T16:17:31;17.90;99.90
5172;DHT22;2605;49.770;9.868;2023-05-10T16:19:56;17.90;99.90
5172;DHT22;2605;49.770;9.868;2023-05-10T16:22:22;18.00;99.90
5172;DHT22;2605;49.770;9.868;2023-05-10T16:24:51;18.00;99.90
5172;DHT22;2605;49.770;9.868;2023-05-10T16:27:18;18.10;99.90
5172;DHT22;2605;49.770;9.868;2023-05-10T16:29:43;18.20;99.90
5172;DHT22;2605;49.770;9.868;2023-05-10T16:32:09;18.20;99.90
5172;DHT22;2605;49.770;9.868;2023-05-10T16:34:34;17.80;99.90
5172;DHT22;2605;49.770;9.868;2023-05-10T16:37:00;17.40;99.90